< < Back
Terminal Aerodrome Forecast


Current Version              Previous Versions:   1  2  3  4  5  6  7  8  9  

Terminal Aerodrome Forecast

539
FTUS42 KJAX 031130 CCA
TAFJAX
TAF COR
KJAX 031130Z 0311/0412 VRB03KT P6SM SCT004 BKN008
      TEMPO 0312/0314 5SM BR BKN003
     FM031500 29008KT P6SM VCSH BKN020 BKN250
     FM031800 31008KT P6SM VCTS BKN030CB
     FM040200 VRB04KT P6SM FEW035 BKN250=



Latest METAR

314
SAUS80 KWBC 041400
MTRJAX
METAR KJAX 041356Z 33005KT 10SM FEW180 SCT250 29/24 A2998 RMK AO2 SLP151
T02890239


USA.gov is the U.S. government's official web portal to all federal, state and local government web resources and services.